createdAt,value
2022-09-26T00:00:26.953Z,5.55
2022-09-26T00:03:19.041Z,6.15
2022-09-26T00:06:00.940Z,5.70
2022-09-26T00:08:49.630Z,5.80
2022-09-26T00:11:35.929Z,5.25
2022-09-26T00:14:30.655Z,5.57
2022-09-26T00:17:13.134Z,4.82
2022-09-26T00:20:02.659Z,5.25
2022-09-26T00:22:51.548Z,5.25
2022-09-26T00:25:40.678Z,5.20
2022-09-26T00:28:23.916Z,5.50
2022-09-26T00:31:18.774Z,5.57
2022-09-26T00:34:00.985Z,5.70
2022-09-26T00:36:49.637Z,5.22
2022-09-26T00:39:31.917Z,6.10
2022-09-26T00:42:24.640Z,5.88
2022-09-26T00:45:07.162Z,5.45
2022-09-26T00:48:08.001Z,5.47
2022-09-26T00:50:57.619Z,5.25
2022-09-26T00:53:45.145Z,6.05
2022-09-26T00:57:00.855Z,5.40
2022-09-26T00:59:56.651Z,7.53
2022-09-26T01:02:39.317Z,8.20
2022-09-26T01:05:30.647Z,8.27
2022-09-26T01:08:14.060Z,8.30
2022-09-26T01:11:03.911Z,7.63
2022-09-26T01:13:45.957Z,7.18
2022-09-26T01:16:35.554Z,8.38
2022-09-26T01:19:47.550Z,7.38
2022-09-26T01:23:25.917Z,8.88
2022-09-26T01:26:31.558Z,9.32
2022-09-26T01:29:49.623Z,8.45
2022-09-26T01:32:50.137Z,9.30
2022-09-26T01:35:51.544Z,11.23
2022-09-26T01:38:51.921Z,10.98
2022-09-26T01:41:46.543Z,10.07
2022-09-26T01:44:52.031Z,9.32
2022-09-26T01:48:00.548Z,9.60
2022-09-26T01:50:50.944Z,10.32
2022-09-26T01:54:11.635Z,11.30
2022-09-26T01:56:58.549Z,11.35
2022-09-26T01:59:52.645Z,11.50
2022-09-26T02:02:43.026Z,11.55
2022-09-26T02:06:00.741Z,11.63
2022-09-26T02:09:00.890Z,11.65
2022-09-26T02:11:53.550Z,12.13
2022-09-26T02:17:41.901Z,10.95
2022-09-26T02:20:31.911Z,12.57
2022-09-26T02:23:20.542Z,12.38
2022-09-26T02:26:02.917Z,12.80
2022-09-26T02:28:51.676Z,12.20
2022-09-26T02:31:40.948Z,13.65
2022-09-26T02:34:30.674Z,11.80
2022-09-26T02:37:14.466Z,12.82
2022-09-26T02:40:04.672Z,12.73
2022-09-26T02:42:59.217Z,13.18
2022-09-26T02:45:57.711Z,13.07
2022-09-26T02:49:07.045Z,13.07
2022-09-26T02:52:09.692Z,12.95
2022-09-26T02:55:09.898Z,13.18
2022-09-26T02:58:23.538Z,14.13
2022-09-26T03:01:40.740Z,13.85
2022-09-26T03:04:51.682Z,13.93
2022-09-26T03:07:43.957Z,13.05
2022-09-26T03:10:35.633Z,13.32
2022-09-26T03:13:23.917Z,14.88
2022-09-26T03:16:13.677Z,15.20
2022-09-26T03:19:03.937Z,16.02
2022-09-26T03:21:52.529Z,16.65
2022-09-26T03:24:35.911Z,16.13
2022-09-26T03:27:25.605Z,16.58
2022-09-26T03:30:07.931Z,17.42
2022-09-26T03:33:05.686Z,16.23
2022-09-26T03:35:47.921Z,18.33
2022-09-26T03:38:37.522Z,20.65
2022-09-26T03:41:51.546Z,24.02
2022-09-26T03:44:42.610Z,52.42
2022-09-26T03:47:39.389Z,49.50
2022-09-26T03:50:28.633Z,47.15
2022-09-26T03:53:17.615Z,49.55
2022-09-26T03:56:17.616Z,48.70
2022-09-26T03:59:00.903Z,44.63
2022-09-26T04:01:49.648Z,42.85
2022-09-26T04:04:33.290Z,38.40
2022-09-26T04:07:24.628Z,35.28
2022-09-26T04:10:06.925Z,32.65
2022-09-26T04:12:55.612Z,30.02
2022-09-26T04:15:38.729Z,28.38
2022-09-26T04:18:28.634Z,26.95
2022-09-26T04:21:19.964Z,26.38
2022-09-26T04:24:08.614Z,25.95
2022-09-26T04:26:54.128Z,24.55
2022-09-26T04:29:43.625Z,23.30
2022-09-26T04:32:57.894Z,23.50
2022-09-26T04:35:59.615Z,21.85
2022-09-26T04:38:42.142Z,22.25
2022-09-26T04:41:31.629Z,24.02
2022-09-26T04:44:20.625Z,22.08
2022-09-26T04:47:09.450Z,20.95
2022-09-26T04:50:11.648Z,20.83
2022-09-26T04:53:10.882Z,20.02
2022-09-26T04:56:15.650Z,22.13
2022-09-26T04:59:06.559Z,20.63
2022-09-26T05:02:08.687Z,19.13
2022-09-26T05:04:52.481Z,19.70
2022-09-26T05:07:42.651Z,19.67
2022-09-26T05:10:31.925Z,18.20
2022-09-26T05:13:15.533Z,17.67
2022-09-26T05:16:00.333Z,19.70
2022-09-26T05:18:59.665Z,20.52
2022-09-26T05:21:50.941Z,19.23
2022-09-26T05:24:51.640Z,18.77
2022-09-26T05:27:33.915Z,18.38
2022-09-26T05:30:22.681Z,19.25
2022-09-26T05:33:06.383Z,19.25
2022-09-26T05:35:55.555Z,19.83
2022-09-26T05:38:38.124Z,19.25
2022-09-26T05:41:28.621Z,19.52
2022-09-26T05:44:16.919Z,19.98
2022-09-26T05:47:00.614Z,20.30
2022-09-26T05:49:51.631Z,20.63
2022-09-26T05:52:36.931Z,19.27
2022-09-26T05:55:33.713Z,19.38
2022-09-26T05:58:32.387Z,18.05
2022-09-26T06:01:54.566Z,16.13
2022-09-26T06:04:59.961Z,15.52
2022-09-26T06:08:03.738Z,13.57
2022-09-26T06:10:56.946Z,13.50
2022-09-26T06:13:45.963Z,11.80
2022-09-26T06:16:30.071Z,10.27
2022-09-26T06:19:22.780Z,10.00
2022-09-26T06:22:04.970Z,9.60
2022-09-26T06:24:53.677Z,10.85
2022-09-26T06:27:41.876Z,11.60
2022-09-26T06:30:31.666Z,11.65
2022-09-26T06:33:46.666Z,10.85
2022-09-26T06:36:47.582Z,9.30
2022-09-26T06:39:43.638Z,11.45
2022-09-26T06:42:31.921Z,10.60
2022-09-26T06:45:34.685Z,11.18
2022-09-26T06:48:31.861Z,9.73
2022-09-26T06:51:45.730Z,10.70
2022-09-26T06:54:28.883Z,10.00
2022-09-26T06:57:21.715Z,9.25
2022-09-26T07:00:11.024Z,9.50
2022-09-26T07:03:12.687Z,10.27
2022-09-26T07:05:59.048Z,11.68
2022-09-26T07:09:01.998Z,10.18
2022-09-26T07:12:22.659Z,10.70
2022-09-26T07:15:05.968Z,10.88
2022-09-26T07:17:58.677Z,10.70
2022-09-26T07:21:05.583Z,11.05
2022-09-26T07:24:00.893Z,10.55
2022-09-26T07:26:50.596Z,10.82
2022-09-26T07:29:40.625Z,10.35
2022-09-26T07:32:26.686Z,10.73
2022-09-26T07:35:22.848Z,10.30
2022-09-26T07:38:12.948Z,10.07
2022-09-26T07:41:09.531Z,9.32
2022-09-26T07:47:19.496Z,9.55
2022-09-26T07:50:23.713Z,8.73
2022-09-26T07:53:21.918Z,8.02
2022-09-26T07:56:42.737Z,8.88
2022-09-26T07:59:37.837Z,8.60
2022-09-26T08:02:59.606Z,8.45
2022-09-26T08:05:52.669Z,8.75
2022-09-26T08:08:42.471Z,8.10
2022-09-26T08:11:44.625Z,7.97
2022-09-26T08:14:51.208Z,7.95
2022-09-26T08:17:51.693Z,8.70
2022-09-26T08:20:40.954Z,8.25
2022-09-26T08:23:25.626Z,7.70
2022-09-26T08:26:25.838Z,7.82
2022-09-26T08:29:25.639Z,8.00
2022-09-26T08:32:13.951Z,7.32
2022-09-26T08:34:56.661Z,7.63
2022-09-26T08:38:04.820Z,7.75
2022-09-26T08:41:12.562Z,7.45
2022-09-26T08:44:37.882Z,7.28
2022-09-26T08:48:10.625Z,7.95
2022-09-26T08:51:24.370Z,7.95
2022-09-26T08:54:26.572Z,7.30
2022-09-26T08:57:42.934Z,7.80
2022-09-26T09:00:31.647Z,8.82
2022-09-26T09:03:41.950Z,9.30
2022-09-26T09:06:25.629Z,8.60
2022-09-26T09:09:14.921Z,9.00
2022-09-26T09:12:51.622Z,9.52
2022-09-26T09:16:22.510Z,8.88
2022-09-26T09:19:59.651Z,10.43
2022-09-26T09:23:36.215Z,9.48
2022-09-26T09:30:24.754Z,10.05
2022-09-26T09:33:43.707Z,9.82
2022-09-26T09:36:36.238Z,10.55
2022-09-26T09:39:41.711Z,10.43
2022-09-26T09:42:43.470Z,10.50
2022-09-26T09:45:35.678Z,10.73
2022-09-26T09:48:19.978Z,10.15
2022-09-26T09:51:25.633Z,10.52
2022-09-26T09:54:47.929Z,12.35
2022-09-26T09:57:54.141Z,11.93
2022-09-26T10:00:49.045Z,14.57
2022-09-26T10:04:12.609Z,14.90
2022-09-26T10:07:03.667Z,15.23
2022-09-26T10:09:55.184Z,14.50
2022-09-26T10:13:13.648Z,14.75
2022-09-26T10:16:21.684Z,16.20
2022-09-26T10:19:23.622Z,15.13
2022-09-26T10:22:10.517Z,16.13
2022-09-26T10:25:02.644Z,16.25
2022-09-26T10:28:03.810Z,16.33
2022-09-26T10:30:57.647Z,17.48
2022-09-26T10:34:00.546Z,17.45
2022-09-26T10:36:47.928Z,18.58
2022-09-26T10:39:56.645Z,17.73
2022-09-26T10:42:49.086Z,19.08
2022-09-26T10:45:36.630Z,21.02
2022-09-26T10:49:04.629Z,20.00
2022-09-26T10:52:13.594Z,19.52
2022-09-26T10:55:33.546Z,20.17
2022-09-26T10:58:31.640Z,21.85
2022-09-26T11:01:31.356Z,21.33
2022-09-26T11:04:49.551Z,20.95
2022-09-26T11:08:01.598Z,20.55
2022-09-26T11:10:55.914Z,20.60
2022-09-26T11:14:16.632Z,19.73
2022-09-26T11:17:15.576Z,20.23
2022-09-26T11:20:10.652Z,20.33
2022-09-26T11:23:07.814Z,20.98
2022-09-26T11:26:26.705Z,20.10
2022-09-26T11:29:26.928Z,20.15
2022-09-26T11:32:40.666Z,21.48
2022-09-26T11:35:45.061Z,21.52
2022-09-26T11:38:46.679Z,21.67
2022-09-26T11:41:56.918Z,21.70
2022-09-26T11:45:26.654Z,22.25
2022-09-26T11:49:02.152Z,25.75
2022-09-26T11:52:37.622Z,27.67
2022-09-26T11:55:46.634Z,28.00
2022-09-26T11:58:28.881Z,29.63
2022-09-26T12:01:44.132Z,30.08
2022-09-26T12:04:55.197Z,29.77
2022-09-26T12:07:56.650Z,29.17
2022-09-26T12:10:40.510Z,30.63
2022-09-26T12:13:48.648Z,29.90
2022-09-26T12:16:37.103Z,31.45
2022-09-26T12:19:35.679Z,32.65
2022-09-26T12:22:38.161Z,31.48
2022-09-26T12:25:42.665Z,32.55
2022-09-26T12:28:58.990Z,33.25
2022-09-26T12:32:16.711Z,32.33
2022-09-26T12:35:32.927Z,34.75
2022-09-26T12:38:28.633Z,36.40
2022-09-26T12:41:33.534Z,36.95
2022-09-26T12:44:47.667Z,35.50
2022-09-26T12:47:38.972Z,36.17
2022-09-26T12:50:33.548Z,35.42
2022-09-26T12:53:36.965Z,35.22
2022-09-26T12:56:49.638Z,35.43
2022-09-26T12:59:44.389Z,34.35
2022-09-26T13:02:51.701Z,32.45
2022-09-26T13:05:52.055Z,33.30
2022-09-26T13:09:12.796Z,32.72
2022-09-26T13:12:17.940Z,32.63
2022-09-26T13:15:08.717Z,30.42
2022-09-26T13:17:56.030Z,30.48
2022-09-26T13:21:02.640Z,30.92
2022-09-26T13:24:20.051Z,28.20
2022-09-26T13:27:37.704Z,26.35
2022-09-26T13:30:36.835Z,27.23
2022-09-26T13:33:33.576Z,25.60
2022-09-26T13:36:18.142Z,27.27
2022-09-26T13:39:11.620Z,24.60
2022-09-26T13:42:21.009Z,22.40
2022-09-26T13:45:24.690Z,22.33
2022-09-26T13:48:37.370Z,22.05
2022-09-26T13:51:39.385Z,18.40
2022-09-26T13:54:34.688Z,18.45
2022-09-26T13:57:40.959Z,16.48
2022-09-26T14:00:37.643Z,15.45
2022-09-26T14:03:24.361Z,16.70
2022-09-26T14:06:25.635Z,15.57
2022-09-26T14:09:27.646Z,14.25
2022-09-26T14:12:38.603Z,14.00
2022-09-26T14:15:56.225Z,14.35
2022-09-26T14:19:09.685Z,14.77
2022-09-26T14:22:10.001Z,15.20
2022-09-26T14:25:00.703Z,13.88
2022-09-26T14:27:44.123Z,15.80
2022-09-26T14:30:41.694Z,15.43
2022-09-26T14:33:30.602Z,15.07
2022-09-26T14:36:38.994Z,15.18
2022-09-26T14:39:51.692Z,15.32
2022-09-26T14:42:59.234Z,15.20
2022-09-26T14:45:45.664Z,15.15
2022-09-26T14:48:46.636Z,14.60
2022-09-26T14:51:46.685Z,15.82
2022-09-26T14:54:41.393Z,14.10
2022-09-26T14:57:46.660Z,13.85
2022-09-26T15:00:41.518Z,14.23
2022-09-26T15:03:34.678Z,14.43
2022-09-26T15:06:23.984Z,13.75
2022-09-26T15:09:15.771Z,14.45
2022-09-26T15:12:05.579Z,15.40
2022-09-26T15:15:11.618Z,16.38
2022-09-26T15:18:11.562Z,15.48
2022-09-26T15:21:04.644Z,15.90
2022-09-26T15:23:59.564Z,17.20
2022-09-26T15:26:44.994Z,16.83
2022-09-26T15:29:34.645Z,16.25
2022-09-26T15:32:33.749Z,15.25
2022-09-26T15:35:19.923Z,15.43
2022-09-26T15:38:24.585Z,14.95
2022-09-26T15:41:20.534Z,15.05
2022-09-26T15:44:16.701Z,15.65
2022-09-26T15:47:06.049Z,15.38
2022-09-26T15:49:48.583Z,15.13
2022-09-26T15:52:36.363Z,15.52
2022-09-26T15:55:41.585Z,16.00
2022-09-26T15:59:06.687Z,16.55
2022-09-26T16:01:56.260Z,16.25
2022-09-26T16:04:41.622Z,15.30
2022-09-26T16:07:38.915Z,17.05
2022-09-26T16:10:41.604Z,16.50
2022-09-26T16:13:33.951Z,16.77
2022-09-26T16:16:24.590Z,16.58
2022-09-26T16:19:15.476Z,17.80
2022-09-26T16:22:04.506Z,18.35
2022-09-26T16:24:47.143Z,18.25
2022-09-26T16:27:41.577Z,17.25
2022-09-26T16:30:27.545Z,17.88
2022-09-26T16:33:23.622Z,17.23
2022-09-26T16:36:23.101Z,16.85
2022-09-26T16:39:12.625Z,17.38
2022-09-26T16:42:28.593Z,18.95
2022-09-26T16:45:23.882Z,18.33
2022-09-26T16:48:07.606Z,17.77
2022-09-26T16:50:56.999Z,18.20
2022-09-26T16:53:39.626Z,18.02
2022-09-26T16:56:33.214Z,20.60
2022-09-26T16:59:42.686Z,20.95
2022-09-26T17:02:32.067Z,19.45
2022-09-26T17:05:26.742Z,19.50
2022-09-26T17:08:19.961Z,19.45
2022-09-26T17:11:05.550Z,19.08
2022-09-26T17:13:51.367Z,21.02
2022-09-26T17:16:41.637Z,19.48
2022-09-26T17:19:33.144Z,19.52
2022-09-26T17:22:22.678Z,19.35
2022-09-26T17:25:12.098Z,19.70
2022-09-26T17:27:59.684Z,19.90
2022-09-26T17:30:48.561Z,19.58
2022-09-26T17:33:36.998Z,21.05
2022-09-26T17:36:30.639Z,19.90
2022-09-26T17:39:19.593Z,18.50
2022-09-26T17:42:14.650Z,19.52
2022-09-26T17:45:03.538Z,19.42
2022-09-26T17:47:47.054Z,18.15
2022-09-26T17:50:38.636Z,20.67
2022-09-26T17:53:25.040Z,19.80
2022-09-26T17:56:15.595Z,19.48
2022-09-26T17:59:00.172Z,15.57
2022-09-26T18:01:48.700Z,15.73
2022-09-26T18:04:33.152Z,17.38
2022-09-26T18:07:22.635Z,17.13
2022-09-26T18:10:14.653Z,17.23
2022-09-26T18:13:00.174Z,17.23
2022-09-26T18:15:48.607Z,17.50
2022-09-26T18:18:39.586Z,17.85
2022-09-26T18:21:33.636Z,17.95
2022-09-26T18:24:19.818Z,18.58
2022-09-26T18:27:14.612Z,18.30
2022-09-26T18:30:03.624Z,17.45
2022-09-26T18:32:49.076Z,18.00
2022-09-26T18:35:37.626Z,18.52
2022-09-26T18:38:27.602Z,17.92
2022-09-26T18:41:18.627Z,17.73
2022-09-26T18:44:17.605Z,17.70
2022-09-26T18:47:08.911Z,18.30
2022-09-26T18:49:55.613Z,19.08
2022-09-26T18:52:38.202Z,18.02
2022-09-26T18:55:52.624Z,18.70
2022-09-26T18:58:49.594Z,18.83
2022-09-26T19:01:41.055Z,18.95
2022-09-26T19:04:29.596Z,18.98
2022-09-26T19:07:14.254Z,19.55
2022-09-26T19:10:06.494Z,19.95
2022-09-26T19:12:49.525Z,19.23
2022-09-26T19:15:38.563Z,18.67
2022-09-26T19:18:20.850Z,19.90
2022-09-26T19:21:09.595Z,18.27
2022-09-26T19:24:00.038Z,18.90
2022-09-26T19:26:49.697Z,19.80
2022-09-26T19:29:35.409Z,18.95
2022-09-26T19:32:50.627Z,19.65
2022-09-26T19:35:40.505Z,19.00
2022-09-26T19:38:36.540Z,18.73
2022-09-26T19:41:24.955Z,19.70
2022-09-26T19:44:14.805Z,18.77
2022-09-26T19:46:57.472Z,19.95
2022-09-26T19:49:46.584Z,19.67
2022-09-26T19:52:28.883Z,19.58
2022-09-26T19:55:24.584Z,17.85
2022-09-26T19:58:29.005Z,18.35
2022-09-26T20:01:26.539Z,18.48
2022-09-26T20:04:09.824Z,18.55
2022-09-26T20:06:58.544Z,19.10
2022-09-26T20:09:41.339Z,19.25
2022-09-26T20:12:30.659Z,20.65
2022-09-26T20:15:14.313Z,18.85
2022-09-26T20:18:06.988Z,18.88
2022-09-26T20:20:49.921Z,19.70
2022-09-26T20:23:38.496Z,20.27
2022-09-26T20:26:27.635Z,21.63
2022-09-26T20:29:15.100Z,21.42
2022-09-26T20:32:03.530Z,21.67
2022-09-26T20:34:51.889Z,22.80
2022-09-26T20:37:39.505Z,21.42
2022-09-26T20:40:25.276Z,21.50
2022-09-26T20:43:22.613Z,23.17
2022-09-26T20:46:06.878Z,21.35
2022-09-26T20:48:57.577Z,23.50
2022-09-26T20:51:39.872Z,21.98
2022-09-26T20:54:40.889Z,22.00
2022-09-26T20:57:31.268Z,22.33
2022-09-26T21:00:15.714Z,22.55
2022-09-26T21:03:03.914Z,22.17
2022-09-26T21:05:46.493Z,21.40
2022-09-26T21:08:31.513Z,22.73
2022-09-26T21:11:20.608Z,22.27
2022-09-26T21:14:02.867Z,21.88
2022-09-26T21:16:59.649Z,24.00
2022-09-26T21:19:41.866Z,22.17
2022-09-26T21:22:50.604Z,22.30
2022-09-26T21:25:39.885Z,23.13
2022-09-26T21:28:36.501Z,21.17
2022-09-26T21:31:52.895Z,21.13
2022-09-26T21:37:35.873Z,21.33
2022-09-26T21:40:25.618Z,21.55
2022-09-26T21:43:28.439Z,22.08
2022-09-26T21:46:17.599Z,21.57
2022-09-26T21:49:00.907Z,21.08
2022-09-26T21:51:50.617Z,21.80
2022-09-26T21:54:40.886Z,23.55
2022-09-26T21:57:34.511Z,23.83
2022-09-26T22:00:17.875Z,22.40
2022-09-26T22:03:07.497Z,23.70
2022-09-26T22:05:49.932Z,23.83
2022-09-26T22:08:38.598Z,23.08
2022-09-26T22:11:27.506Z,23.83
2022-09-26T22:14:16.627Z,22.52
2022-09-26T22:17:00.212Z,23.17
2022-09-26T22:20:07.624Z,22.35
2022-09-26T22:22:49.920Z,22.58
2022-09-26T22:25:42.662Z,24.27
2022-09-26T22:28:24.887Z,23.77
2022-09-26T22:31:13.639Z,24.00
2022-09-26T22:34:02.506Z,24.45
2022-09-26T22:36:51.643Z,22.27
2022-09-26T22:39:34.064Z,22.20
2022-09-26T22:42:22.590Z,23.48
2022-09-26T22:45:11.663Z,22.73
2022-09-26T22:47:59.874Z,24.63
2022-09-26T22:50:42.575Z,23.25
2022-09-26T22:53:24.831Z,24.40
2022-09-26T22:56:14.495Z,25.67
2022-09-26T22:59:03.512Z,25.77
2022-09-26T23:01:46.980Z,27.02
2022-09-26T23:04:54.481Z,27.33
2022-09-26T23:07:36.888Z,27.00
2022-09-26T23:10:29.480Z,29.05
2022-09-26T23:13:11.908Z,29.90
2022-09-26T23:16:00.597Z,29.77
2022-09-26T23:18:53.783Z,33.83
2022-09-26T23:21:42.481Z,33.28
2022-09-26T23:24:25.942Z,36.08
2022-09-26T23:27:14.604Z,36.88
2022-09-26T23:29:56.909Z,35.13
2022-09-26T23:32:45.621Z,34.55
2022-09-26T23:35:27.891Z,35.42
2022-09-26T23:38:16.569Z,37.10
2022-09-26T23:40:59.061Z,37.83
2022-09-26T23:43:47.500Z,39.42
2022-09-26T23:46:29.913Z,39.80
2022-09-26T23:49:18.875Z,39.20
2022-09-26T23:52:00.927Z,39.80
2022-09-26T23:54:50.632Z,38.23
2022-09-26T23:57:32.896Z,38.15
